Terminal Aerodrome Forecast
Issued by NWS Charleston, WV

Current Version | Previous Version | Text Only | Print | Product List | Glossary Off
Versions: 1 2 3 4 5 6 7 8 9 10 11 12 13 14 15 16 17 18 19 20 21 22 23 24 25

417
FTUS41 KRLX 160308 AAA
TAFHTS
TAF AMD
KHTS 160308Z 1603/1624 22005KT P6SM OVC045
     FM160500 25007KT P6SM SCT060
     FM161100 21006KT P6SM SCT250=

USA.gov is the U.S. government's official web portal to all federal, state and local government web resources and services.